Antequera, Spain
Current Conditions -  °F | °C
As of 4:00 AM on Tuesday 27 Jan 2015 (Local Time) from LEMG Reporting Station
Clear Clear  
Wind Chill:   Ceiling: Unl
Heat Index:   Visibility: 6mi
Dew Point:   Wind: 1mph
Humidity: 93%   Direction: NA
Pressure: 30.3"   Gusts: NA
Location:  37.02°N, 4.56°W
Report Text: LEMG 270300Z VRB01KT CAVOK 06/05 Q1026 NOSIG
Loading
Personal Weather Stations






























Interactive Weather Map New forecast layout! Learn more

10-Day Weather Forecast

Advertisements
Track Severe Weather on mobile